Terminal Aerodrome Forecast
Issued by NWS

Home | Current Version | Previous Version | Graphics & Text | Print | Product List | Glossary On
Versions: 1 2 3 4 5 6 7 8 9 10 11 12 13 14 15 16 17 18 19 20 21 22
537
FTUS42 KMHX 202358
TAFISO
TAF
KISO 202358Z 2100/2124 00000KT P6SM BKN060
     FM210100 00000KT 3SM BR BKN020
     FM210400 VRB03KT 1SM BR BKN007
     FM210600 VRB03KT 1/2SM FG BKN003
     FM211300 VRB03KT P6SM OVC003
     FM211800 16005KT 4SM SHRA SCT005 BKN015
      AMD LTD TO CLD VIS AND WIND=

USA.gov is the U.S. government's official web portal to all federal, state and local government web resources and services.